Sereno, Pennsylvania
Current Conditions -  °F | °C
As of 10:54 AM on Sunday 23 Nov 2014 (Local Time) from KIPT Reporting Station
Broken Clouds Broken Clouds  
Wind Chill: 40°   Ceiling: 12000
Heat Index: 40°   Visibility: 10mi
Dew Point: 29°   Wind: 3mph
Humidity: 65%   Direction: 260°W
Pressure: 30.18"   Gusts: NA
Location:  41.1401°N, 76.5245°W
Report Text: KIPT 231554Z 26003KT 10SM BKN120 04/M02 A3018 RMK AO2 SLP223 T00441017
Loading
Personal Weather Stations






























Interactive Weather Map New forecast layout! Learn more

10-Day Weather Forecast

Advertisements
Track Severe Weather on mobile